sensor_id;sensor_type;location;lat;lon;timestamp;P1;durP1;ratioP1;P2;durP2;ratioP2
78365;SDS011;67641;59.864;30.464;2023-05-23T00:00:18;9.07;;;2.85;;
78365;SDS011;67641;59.864;30.464;2023-05-23T00:02:46;14.60;;;3.47;;
78365;SDS011;67641;59.864;30.464;2023-05-23T00:05:13;11.52;;;3.30;;
78365;SDS011;67641;59.864;30.464;2023-05-23T00:11:17;10.32;;;2.95;;
78365;SDS011;67641;59.864;30.464;2023-05-23T00:13:45;10.05;;;2.85;;
78365;SDS011;67641;59.864;30.464;2023-05-23T00:19:02;11.13;;;2.70;;
78365;SDS011;67641;59.864;30.464;2023-05-23T00:21:30;11.82;;;3.03;;
78365;SDS011;67641;59.864;30.464;2023-05-23T00:23:58;10.20;;;3.65;;
78365;SDS011;67641;59.864;30.464;2023-05-23T00:26:24;11.45;;;3.33;;
78365;SDS011;67641;59.864;30.464;2023-05-23T00:28:54;9.07;;;2.90;;
78365;SDS011;67641;59.864;30.464;2023-05-23T00:31:22;11.32;;;3.00;;
78365;SDS011;67641;59.864;30.464;2023-05-23T00:33:49;9.73;;;3.20;;
78365;SDS011;67641;59.864;30.464;2023-05-23T00:36:16;10.02;;;3.03;;
78365;SDS011;67641;59.864;30.464;2023-05-23T00:41:14;10.27;;;3.28;;
78365;SDS011;67641;59.864;30.464;2023-05-23T00:43:43;39.88;;;16.23;;
78365;SDS011;67641;59.864;30.464;2023-05-23T00:46:10;28.55;;;9.23;;
78365;SDS011;67641;59.864;30.464;2023-05-23T00:48:37;14.60;;;4.78;;
78365;SDS011;67641;59.864;30.464;2023-05-23T00:51:04;12.98;;;3.45;;
78365;SDS011;67641;59.864;30.464;2023-05-23T00:53:32;8.88;;;2.95;;
78365;SDS011;67641;59.864;30.464;2023-05-23T00:56:01;10.48;;;2.95;;
78365;SDS011;67641;59.864;30.464;2023-05-23T00:58:28;13.35;;;3.35;;
78365;SDS011;67641;59.864;30.464;2023-05-23T01:02:45;17.42;;;3.20;;
78365;SDS011;67641;59.864;30.464;2023-05-23T01:05:14;10.57;;;2.80;;
78365;SDS011;67641;59.864;30.464;2023-05-23T01:07:45;11.52;;;2.58;;
78365;SDS011;67641;59.864;30.464;2023-05-23T01:10:25;18.15;;;3.50;;
78365;SDS011;67641;59.864;30.464;2023-05-23T01:18:27;18.55;;;3.53;;
78365;SDS011;67641;59.864;30.464;2023-05-23T01:23:12;11.45;;;2.97;;
78365;SDS011;67641;59.864;30.464;2023-05-23T01:29:00;11.90;;;3.05;;
78365;SDS011;67641;59.864;30.464;2023-05-23T01:31:39;11.45;;;3.25;;
78365;SDS011;67641;59.864;30.464;2023-05-23T01:34:12;12.93;;;3.40;;
78365;SDS011;67641;59.864;30.464;2023-05-23T01:36:40;12.40;;;2.92;;
78365;SDS011;67641;59.864;30.464;2023-05-23T01:39:08;14.25;;;3.38;;
78365;SDS011;67641;59.864;30.464;2023-05-23T01:41:35;13.90;;;3.35;;
78365;SDS011;67641;59.864;30.464;2023-05-23T01:45:53;20.52;;;3.65;;
78365;SDS011;67641;59.864;30.464;2023-05-23T01:48:22;13.15;;;2.90;;
78365;SDS011;67641;59.864;30.464;2023-05-23T01:50:51;11.48;;;3.53;;
78365;SDS011;67641;59.864;30.464;2023-05-23T01:53:19;9.57;;;2.63;;
78365;SDS011;67641;59.864;30.464;2023-05-23T01:55:47;14.80;;;3.65;;
78365;SDS011;67641;59.864;30.464;2023-05-23T01:58:15;10.55;;;2.80;;
78365;SDS011;67641;59.864;30.464;2023-05-23T02:00:42;13.23;;;2.95;;
78365;SDS011;67641;59.864;30.464;2023-05-23T02:03:09;13.55;;;3.00;;
78365;SDS011;67641;59.864;30.464;2023-05-23T02:08:18;23.52;;;3.55;;
78365;SDS011;67641;59.864;30.464;2023-05-23T02:10:44;10.70;;;3.17;;
78365;SDS011;67641;59.864;30.464;2023-05-23T02:13:11;10.73;;;2.53;;
78365;SDS011;67641;59.864;30.464;2023-05-23T02:15:38;15.82;;;3.33;;
78365;SDS011;67641;59.864;30.464;2023-05-23T02:18:04;17.02;;;3.13;;
78365;SDS011;67641;59.864;30.464;2023-05-23T02:20:31;11.55;;;2.85;;
78365;SDS011;67641;59.864;30.464;2023-05-23T02:23:01;12.57;;;3.33;;
78365;SDS011;67641;59.864;30.464;2023-05-23T02:25:27;11.98;;;2.92;;
78365;SDS011;67641;59.864;30.464;2023-05-23T02:30:31;13.45;;;2.90;;
78365;SDS011;67641;59.864;30.464;2023-05-23T02:32:58;13.40;;;3.00;;
78365;SDS011;67641;59.864;30.464;2023-05-23T02:35:29;11.32;;;2.90;;
78365;SDS011;67641;59.864;30.464;2023-05-23T02:37:58;20.30;;;4.03;;
78365;SDS011;67641;59.864;30.464;2023-05-23T02:40:25;13.27;;;2.90;;
78365;SDS011;67641;59.864;30.464;2023-05-23T02:42:51;11.85;;;3.30;;
78365;SDS011;67641;59.864;30.464;2023-05-23T02:45:18;12.57;;;3.00;;
78365;SDS011;67641;59.864;30.464;2023-05-23T02:47:45;10.35;;;3.10;;
78365;SDS011;67641;59.864;30.464;2023-05-23T02:52:14;14.07;;;2.83;;
78365;SDS011;67641;59.864;30.464;2023-05-23T02:54:42;15.18;;;4.35;;
78365;SDS011;67641;59.864;30.464;2023-05-23T02:57:08;15.13;;;3.25;;
78365;SDS011;67641;59.864;30.464;2023-05-23T02:59:35;13.30;;;3.75;;
78365;SDS011;67641;59.864;30.464;2023-05-23T03:02:04;18.25;;;3.72;;
78365;SDS011;67641;59.864;30.464;2023-05-23T03:04:31;13.45;;;3.55;;
78365;SDS011;67641;59.864;30.464;2023-05-23T03:06:58;14.93;;;3.08;;
78365;SDS011;67641;59.864;30.464;2023-05-23T03:09:25;15.60;;;3.92;;
78365;SDS011;67641;59.864;30.464;2023-05-23T03:14:11;12.77;;;3.65;;
78365;SDS011;67641;59.864;30.464;2023-05-23T03:16:38;17.30;;;3.42;;
78365;SDS011;67641;59.864;30.464;2023-05-23T03:19:06;14.02;;;4.00;;
78365;SDS011;67641;59.864;30.464;2023-05-23T03:21:33;13.52;;;3.60;;
78365;SDS011;67641;59.864;30.464;2023-05-23T03:24:00;16.17;;;3.85;;
78365;SDS011;67641;59.864;30.464;2023-05-23T03:26:28;22.40;;;5.20;;
78365;SDS011;67641;59.864;30.464;2023-05-23T03:28:58;14.10;;;4.00;;
78365;SDS011;67641;59.864;30.464;2023-05-23T03:31:26;16.92;;;3.22;;
78365;SDS011;67641;59.864;30.464;2023-05-23T03:36:09;11.93;;;3.30;;
78365;SDS011;67641;59.864;30.464;2023-05-23T03:38:36;13.23;;;3.35;;
78365;SDS011;67641;59.864;30.464;2023-05-23T03:41:03;15.07;;;4.10;;
78365;SDS011;67641;59.864;30.464;2023-05-23T03:43:30;16.15;;;3.13;;
78365;SDS011;67641;59.864;30.464;2023-05-23T03:45:57;12.10;;;3.63;;
78365;SDS011;67641;59.864;30.464;2023-05-23T03:48:24;13.38;;;4.22;;
78365;SDS011;67641;59.864;30.464;2023-05-23T03:50:51;15.25;;;3.50;;
78365;SDS011;67641;59.864;30.464;2023-05-23T03:53:18;18.17;;;4.32;;
78365;SDS011;67641;59.864;30.464;2023-05-23T03:58:25;14.77;;;5.07;;
78365;SDS011;67641;59.864;30.464;2023-05-23T04:00:52;16.10;;;3.78;;
78365;SDS011;67641;59.864;30.464;2023-05-23T04:03:20;19.08;;;3.65;;
78365;SDS011;67641;59.864;30.464;2023-05-23T04:05:47;12.55;;;3.67;;
78365;SDS011;67641;59.864;30.464;2023-05-23T04:08:17;17.55;;;4.03;;
78365;SDS011;67641;59.864;30.464;2023-05-23T04:10:47;12.05;;;3.60;;
78365;SDS011;67641;59.864;30.464;2023-05-23T04:13:14;17.98;;;3.83;;
78365;SDS011;67641;59.864;30.464;2023-05-23T04:15:41;13.93;;;3.83;;
78365;SDS011;67641;59.864;30.464;2023-05-23T04:20:39;14.13;;;3.65;;
78365;SDS011;67641;59.864;30.464;2023-05-23T04:23:06;16.00;;;3.95;;
78365;SDS011;67641;59.864;30.464;2023-05-23T04:25:33;15.38;;;3.80;;
78365;SDS011;67641;59.864;30.464;2023-05-23T04:28:00;15.75;;;4.03;;
78365;SDS011;67641;59.864;30.464;2023-05-23T04:30:27;18.40;;;3.53;;
78365;SDS011;67641;59.864;30.464;2023-05-23T04:32:55;16.40;;;4.28;;
78365;SDS011;67641;59.864;30.464;2023-05-23T04:35:25;13.05;;;3.83;;
78365;SDS011;67641;59.864;30.464;2023-05-23T04:37:56;16.42;;;4.03;;
78365;SDS011;67641;59.864;30.464;2023-05-23T04:42:52;14.10;;;3.47;;
78365;SDS011;67641;59.864;30.464;2023-05-23T04:45:19;19.67;;;4.20;;
78365;SDS011;67641;59.864;30.464;2023-05-23T04:47:46;16.67;;;4.22;;
78365;SDS011;67641;59.864;30.464;2023-05-23T04:50:13;13.73;;;3.97;;
78365;SDS011;67641;59.864;30.464;2023-05-23T04:52:40;16.63;;;3.17;;
78365;SDS011;67641;59.864;30.464;2023-05-23T04:55:08;23.10;;;3.67;;
78365;SDS011;67641;59.864;30.464;2023-05-23T04:57:35;16.40;;;3.45;;
78365;SDS011;67641;59.864;30.464;2023-05-23T05:00:04;21.40;;;3.45;;
78365;SDS011;67641;59.864;30.464;2023-05-23T05:05:17;22.65;;;3.78;;
78365;SDS011;67641;59.864;30.464;2023-05-23T05:07:43;17.00;;;2.88;;
78365;SDS011;67641;59.864;30.464;2023-05-23T05:10:10;24.02;;;3.70;;
78365;SDS011;67641;59.864;30.464;2023-05-23T05:12:45;24.35;;;3.35;;
78365;SDS011;67641;59.864;30.464;2023-05-23T05:15:17;17.67;;;3.22;;
78365;SDS011;67641;59.864;30.464;2023-05-23T05:17:44;16.85;;;2.92;;
78365;SDS011;67641;59.864;30.464;2023-05-23T05:20:11;20.75;;;3.22;;
78365;SDS011;67641;59.864;30.464;2023-05-23T05:22:40;17.80;;;3.65;;
78365;SDS011;67641;59.864;30.464;2023-05-23T05:27:49;20.02;;;3.60;;
78365;SDS011;67641;59.864;30.464;2023-05-23T05:30:18;22.58;;;3.50;;
78365;SDS011;67641;59.864;30.464;2023-05-23T05:32:44;22.50;;;3.53;;
78365;SDS011;67641;59.864;30.464;2023-05-23T05:35:13;19.38;;;3.22;;
78365;SDS011;67641;59.864;30.464;2023-05-23T05:37:40;19.13;;;3.42;;
78365;SDS011;67641;59.864;30.464;2023-05-23T05:40:07;27.67;;;3.42;;
78365;SDS011;67641;59.864;30.464;2023-05-23T05:42:35;21.48;;;3.50;;
78365;SDS011;67641;59.864;30.464;2023-05-23T05:45:02;21.13;;;3.33;;
78365;SDS011;67641;59.864;30.464;2023-05-23T05:50:06;19.50;;;3.58;;
78365;SDS011;67641;59.864;30.464;2023-05-23T05:52:35;16.10;;;2.97;;
78365;SDS011;67641;59.864;30.464;2023-05-23T05:55:07;16.45;;;2.63;;
78365;SDS011;67641;59.864;30.464;2023-05-23T05:57:39;18.30;;;3.38;;
78365;SDS011;67641;59.864;30.464;2023-05-23T06:00:10;15.52;;;3.00;;
78365;SDS011;67641;59.864;30.464;2023-05-23T06:02:40;16.23;;;4.03;;
78365;SDS011;67641;59.864;30.464;2023-05-23T06:05:13;18.92;;;3.05;;
78365;SDS011;67641;59.864;30.464;2023-05-23T06:07:42;20.05;;;3.53;;
78365;SDS011;67641;59.864;30.464;2023-05-23T06:11:50;15.65;;;3.60;;
78365;SDS011;67641;59.864;30.464;2023-05-23T06:14:18;19.50;;;3.67;;
78365;SDS011;67641;59.864;30.464;2023-05-23T06:16:45;21.80;;;3.03;;
78365;SDS011;67641;59.864;30.464;2023-05-23T06:19:12;19.55;;;3.47;;
78365;SDS011;67641;59.864;30.464;2023-05-23T06:21:40;16.98;;;3.40;;
78365;SDS011;67641;59.864;30.464;2023-05-23T06:24:07;19.15;;;4.47;;
78365;SDS011;67641;59.864;30.464;2023-05-23T06:26:35;17.52;;;3.60;;
78365;SDS011;67641;59.864;30.464;2023-05-23T06:29:03;23.30;;;3.47;;
78365;SDS011;67641;59.864;30.464;2023-05-23T06:34:06;19.95;;;3.60;;
78365;SDS011;67641;59.864;30.464;2023-05-23T06:36:34;16.20;;;3.38;;
78365;SDS011;67641;59.864;30.464;2023-05-23T06:39:01;18.58;;;3.17;;
78365;SDS011;67641;59.864;30.464;2023-05-23T06:41:29;20.15;;;3.95;;
78365;SDS011;67641;59.864;30.464;2023-05-23T06:43:56;20.73;;;3.22;;
78365;SDS011;67641;59.864;30.464;2023-05-23T06:46:23;22.30;;;3.85;;
78365;SDS011;67641;59.864;30.464;2023-05-23T06:48:50;21.70;;;3.60;;
78365;SDS011;67641;59.864;30.464;2023-05-23T06:51:17;18.05;;;3.72;;
78365;SDS011;67641;59.864;30.464;2023-05-23T06:56:19;14.15;;;2.70;;
78365;SDS011;67641;59.864;30.464;2023-05-23T06:58:47;21.10;;;3.92;;
78365;SDS011;67641;59.864;30.464;2023-05-23T07:01:16;18.08;;;4.00;;
78365;SDS011;67641;59.864;30.464;2023-05-23T07:03:43;21.20;;;4.15;;
78365;SDS011;67641;59.864;30.464;2023-05-23T07:06:11;21.65;;;3.90;;
78365;SDS011;67641;59.864;30.464;2023-05-23T07:08:38;18.02;;;3.97;;
78365;SDS011;67641;59.864;30.464;2023-05-23T07:11:05;14.55;;;3.20;;
78365;SDS011;67641;59.864;30.464;2023-05-23T07:13:32;15.00;;;3.33;;
78365;SDS011;67641;59.864;30.464;2023-05-23T07:18:47;15.48;;;3.67;;
78365;SDS011;67641;59.864;30.464;2023-05-23T07:21:14;18.58;;;4.13;;
78365;SDS011;67641;59.864;30.464;2023-05-23T07:23:42;15.77;;;4.38;;
78365;SDS011;67641;59.864;30.464;2023-05-23T07:26:08;19.10;;;5.00;;
78365;SDS011;67641;59.864;30.464;2023-05-23T07:28:35;25.80;;;4.60;;
78365;SDS011;67641;59.864;30.464;2023-05-23T07:31:04;17.80;;;4.90;;
78365;SDS011;67641;59.864;30.464;2023-05-23T07:33:33;19.27;;;5.15;;
78365;SDS011;67641;59.864;30.464;2023-05-23T07:36:00;20.40;;;4.30;;
78365;SDS011;67641;59.864;30.464;2023-05-23T07:41:00;21.65;;;4.20;;
78365;SDS011;67641;59.864;30.464;2023-05-23T07:43:27;21.73;;;4.38;;
78365;SDS011;67641;59.864;30.464;2023-05-23T07:45:57;21.40;;;4.65;;
78365;SDS011;67641;59.864;30.464;2023-05-23T07:48:25;18.48;;;4.68;;
78365;SDS011;67641;59.864;30.464;2023-05-23T07:50:53;21.45;;;4.43;;
78365;SDS011;67641;59.864;30.464;2023-05-23T07:53:21;21.23;;;4.05;;
78365;SDS011;67641;59.864;30.464;2023-05-23T07:55:48;22.10;;;4.60;;
78365;SDS011;67641;59.864;30.464;2023-05-23T07:58:16;20.98;;;3.80;;
78365;SDS011;67641;59.864;30.464;2023-05-23T08:03:26;20.38;;;4.18;;
78365;SDS011;67641;59.864;30.464;2023-05-23T08:05:53;20.33;;;4.10;;
78365;SDS011;67641;59.864;30.464;2023-05-23T08:08:20;19.42;;;3.97;;
78365;SDS011;67641;59.864;30.464;2023-05-23T08:10:48;23.15;;;4.38;;
78365;SDS011;67641;59.864;30.464;2023-05-23T08:13:19;23.75;;;4.15;;
78365;SDS011;67641;59.864;30.464;2023-05-23T08:15:49;22.20;;;4.47;;
78365;SDS011;67641;59.864;30.464;2023-05-23T08:18:16;18.60;;;3.95;;
78365;SDS011;67641;59.864;30.464;2023-05-23T08:20:43;23.75;;;4.97;;
78365;SDS011;67641;59.864;30.464;2023-05-23T08:25:51;20.27;;;4.38;;
78365;SDS011;67641;59.864;30.464;2023-05-23T08:28:23;15.45;;;3.38;;
78365;SDS011;67641;59.864;30.464;2023-05-23T08:30:52;19.70;;;4.53;;
78365;SDS011;67641;59.864;30.464;2023-05-23T08:33:19;20.05;;;4.15;;
78365;SDS011;67641;59.864;30.464;2023-05-23T08:35:46;20.27;;;4.38;;
78365;SDS011;67641;59.864;30.464;2023-05-23T08:38:13;25.92;;;4.65;;
78365;SDS011;67641;59.864;30.464;2023-05-23T08:40:39;15.10;;;3.85;;
78365;SDS011;67641;59.864;30.464;2023-05-23T08:43:14;16.55;;;4.07;;
78365;SDS011;67641;59.864;30.464;2023-05-23T08:48:22;18.35;;;4.22;;
78365;SDS011;67641;59.864;30.464;2023-05-23T08:50:52;18.70;;;4.28;;
78365;SDS011;67641;59.864;30.464;2023-05-23T08:53:20;22.13;;;4.30;;
78365;SDS011;67641;59.864;30.464;2023-05-23T08:55:50;20.75;;;4.75;;
78365;SDS011;67641;59.864;30.464;2023-05-23T08:58:21;18.30;;;3.75;;
78365;SDS011;67641;59.864;30.464;2023-05-23T09:00:50;21.98;;;3.58;;
78365;SDS011;67641;59.864;30.464;2023-05-23T09:03:19;20.33;;;4.18;;
78365;SDS011;67641;59.864;30.464;2023-05-23T09:05:46;20.00;;;4.80;;
78365;SDS011;67641;59.864;30.464;2023-05-23T09:09:35;23.85;;;3.67;;
78365;SDS011;67641;59.864;30.464;2023-05-23T09:12:02;15.18;;;3.65;;
78365;SDS011;67641;59.864;30.464;2023-05-23T09:14:29;20.60;;;4.63;;
78365;SDS011;67641;59.864;30.464;2023-05-23T09:17:00;19.30;;;4.72;;
78365;SDS011;67641;59.864;30.464;2023-05-23T09:19:27;19.58;;;4.80;;
78365;SDS011;67641;59.864;30.464;2023-05-23T09:21:54;18.90;;;3.97;;
78365;SDS011;67641;59.864;30.464;2023-05-23T09:24:21;18.52;;;4.72;;
78365;SDS011;67641;59.864;30.464;2023-05-23T09:26:48;23.02;;;5.10;;
78365;SDS011;67641;59.864;30.464;2023-05-23T09:31:17;20.85;;;4.18;;
78365;SDS011;67641;59.864;30.464;2023-05-23T09:33:45;25.17;;;4.30;;
78365;SDS011;67641;59.864;30.464;2023-05-23T09:36:13;20.77;;;3.55;;
78365;SDS011;67641;59.864;30.464;2023-05-23T09:38:42;16.10;;;4.13;;
78365;SDS011;67641;59.864;30.464;2023-05-23T09:46:18;21.65;;;4.85;;
78365;SDS011;67641;59.864;30.464;2023-05-23T09:48:52;18.77;;;4.80;;
78365;SDS011;67641;59.864;30.464;2023-05-23T09:53:31;22.25;;;5.55;;
78365;SDS011;67641;59.864;30.464;2023-05-23T09:55:59;24.88;;;5.25;;
78365;SDS011;67641;59.864;30.464;2023-05-23T09:58:28;20.25;;;4.90;;
78365;SDS011;67641;59.864;30.464;2023-05-23T10:00:56;23.35;;;4.90;;
78365;SDS011;67641;59.864;30.464;2023-05-23T10:03:37;18.48;;;3.97;;
78365;SDS011;67641;59.864;30.464;2023-05-23T10:06:15;21.73;;;5.28;;
78365;SDS011;67641;59.864;30.464;2023-05-23T10:08:49;24.27;;;5.07;;
78365;SDS011;67641;59.864;30.464;2023-05-23T10:14:09;22.30;;;4.85;;
78365;SDS011;67641;59.864;30.464;2023-05-23T10:22:05;23.13;;;5.30;;
78365;SDS011;67641;59.864;30.464;2023-05-23T10:24:35;14.80;;;4.18;;
78365;SDS011;67641;59.864;30.464;2023-05-23T10:27:02;20.92;;;5.45;;
78365;SDS011;67641;59.864;30.464;2023-05-23T10:29:30;20.60;;;5.13;;
78365;SDS011;67641;59.864;30.464;2023-05-23T10:37:26;24.25;;;5.32;;
78365;SDS011;67641;59.864;30.464;2023-05-23T10:45:19;26.60;;;6.75;;
78365;SDS011;67641;59.864;30.464;2023-05-23T10:47:49;22.27;;;6.13;;
78365;SDS011;67641;59.864;30.464;2023-05-23T10:50:33;20.08;;;5.72;;
78365;SDS011;67641;59.864;30.464;2023-05-23T10:56:05;23.25;;;5.90;;
78365;SDS011;67641;59.864;30.464;2023-05-23T10:58:33;19.67;;;5.43;;
78365;SDS011;67641;59.864;30.464;2023-05-23T11:01:05;22.30;;;4.75;;
78365;SDS011;67641;59.864;30.464;2023-05-23T11:09:18;24.02;;;5.45;;
78365;SDS011;67641;59.864;30.464;2023-05-23T11:17:48;20.63;;;4.72;;
78365;SDS011;67641;59.864;30.464;2023-05-23T11:19:58;22.95;;;5.07;;
78365;SDS011;67641;59.864;30.464;2023-05-23T11:22:31;26.05;;;6.13;;
78365;SDS011;67641;59.864;30.464;2023-05-23T11:25:00;19.92;;;5.05;;
78365;SDS011;67641;59.864;30.464;2023-05-23T11:32:41;21.27;;;5.68;;
78365;SDS011;67641;59.864;30.464;2023-05-23T11:37:14;21.70;;;4.95;;
78365;SDS011;67641;59.864;30.464;2023-05-23T11:39:43;26.23;;;5.57;;
78365;SDS011;67641;59.864;30.464;2023-05-23T11:42:10;23.20;;;5.53;;
78365;SDS011;67641;59.864;30.464;2023-05-23T11:44:37;24.45;;;5.30;;
78365;SDS011;67641;59.864;30.464;2023-05-23T11:47:05;25.92;;;5.22;;
78365;SDS011;67641;59.864;30.464;2023-05-23T11:49:36;23.65;;;5.38;;
78365;SDS011;67641;59.864;30.464;2023-05-23T11:52:04;23.20;;;5.60;;
78365;SDS011;67641;59.864;30.464;2023-05-23T11:54:34;24.73;;;6.25;;
78365;SDS011;67641;59.864;30.464;2023-05-23T11:59:29;19.95;;;4.97;;
78365;SDS011;67641;59.864;30.464;2023-05-23T12:01:57;21.50;;;5.95;;
78365;SDS011;67641;59.864;30.464;2023-05-23T12:04:24;23.50;;;6.13;;
78365;SDS011;67641;59.864;30.464;2023-05-23T12:06:52;19.58;;;5.57;;
78365;SDS011;67641;59.864;30.464;2023-05-23T12:09:19;20.90;;;5.57;;
78365;SDS011;67641;59.864;30.464;2023-05-23T12:11:47;26.83;;;6.80;;
78365;SDS011;67641;59.864;30.464;2023-05-23T12:14:15;21.55;;;6.38;;
78365;SDS011;67641;59.864;30.464;2023-05-23T12:16:44;22.85;;;6.38;;
78365;SDS011;67641;59.864;30.464;2023-05-23T12:21:49;28.92;;;5.63;;
78365;SDS011;67641;59.864;30.464;2023-05-23T12:24:19;21.38;;;5.78;;
78365;SDS011;67641;59.864;30.464;2023-05-23T12:26:53;18.67;;;5.82;;
78365;SDS011;67641;59.864;30.464;2023-05-23T12:29:33;24.48;;;7.03;;
78365;SDS011;67641;59.864;30.464;2023-05-23T12:32:02;22.60;;;5.95;;
78365;SDS011;67641;59.864;30.464;2023-05-23T12:36:58;26.02;;;5.40;;
78365;SDS011;67641;59.864;30.464;2023-05-23T12:39:29;20.45;;;5.10;;
78365;SDS011;67641;59.864;30.464;2023-05-23T12:43:51;17.90;;;5.07;;
78365;SDS011;67641;59.864;30.464;2023-05-23T12:46:19;19.45;;;5.35;;
78365;SDS011;67641;59.864;30.464;2023-05-23T12:48:47;22.50;;;5.47;;
78365;SDS011;67641;59.864;30.464;2023-05-23T12:51:15;19.25;;;5.03;;
78365;SDS011;67641;59.864;30.464;2023-05-23T12:53:42;18.00;;;4.72;;
78365;SDS011;67641;59.864;30.464;2023-05-23T12:56:09;26.23;;;6.30;;
78365;SDS011;67641;59.864;30.464;2023-05-23T12:58:38;21.42;;;4.97;;
78365;SDS011;67641;59.864;30.464;2023-05-23T13:04:06;18.27;;;4.53;;
78365;SDS011;67641;59.864;30.464;2023-05-23T13:06:33;15.73;;;5.10;;
78365;SDS011;67641;59.864;30.464;2023-05-23T13:09:00;16.75;;;4.25;;
78365;SDS011;67641;59.864;30.464;2023-05-23T13:11:27;16.90;;;4.70;;
78365;SDS011;67641;59.864;30.464;2023-05-23T13:13:54;14.55;;;4.38;;
78365;SDS011;67641;59.864;30.464;2023-05-23T13:16:21;17.88;;;4.30;;
78365;SDS011;67641;59.864;30.464;2023-05-23T13:18:49;15.02;;;4.47;;
78365;SDS011;67641;59.864;30.464;2023-05-23T13:21:20;18.35;;;4.28;;
78365;SDS011;67641;59.864;30.464;2023-05-23T13:26:01;12.95;;;3.92;;
78365;SDS011;67641;59.864;30.464;2023-05-23T13:28:29;15.13;;;3.75;;
78365;SDS011;67641;59.864;30.464;2023-05-23T13:30:56;14.02;;;3.30;;
78365;SDS011;67641;59.864;30.464;2023-05-23T13:33:22;12.70;;;3.58;;
78365;SDS011;67641;59.864;30.464;2023-05-23T13:35:51;12.23;;;3.65;;
78365;SDS011;67641;59.864;30.464;2023-05-23T13:38:20;16.35;;;4.35;;
78365;SDS011;67641;59.864;30.464;2023-05-23T13:40:47;14.52;;;3.90;;
78365;SDS011;67641;59.864;30.464;2023-05-23T13:43:14;16.17;;;3.80;;
78365;SDS011;67641;59.864;30.464;2023-05-23T13:46:15;16.30;;;3.50;;
78365;SDS011;67641;59.864;30.464;2023-05-23T13:48:42;12.32;;;3.55;;
78365;SDS011;67641;59.864;30.464;2023-05-23T13:51:08;10.55;;;3.10;;
78365;SDS011;67641;59.864;30.464;2023-05-23T13:53:35;12.20;;;2.95;;
78365;SDS011;67641;59.864;30.464;2023-05-23T13:56:02;15.05;;;3.47;;
78365;SDS011;67641;59.864;30.464;2023-05-23T13:58:28;15.68;;;4.63;;
78365;SDS011;67641;59.864;30.464;2023-05-23T14:00:55;13.20;;;3.28;;
78365;SDS011;67641;59.864;30.464;2023-05-23T14:03:24;14.45;;;3.55;;
78365;SDS011;67641;59.864;30.464;2023-05-23T14:08:13;14.57;;;3.05;;
78365;SDS011;67641;59.864;30.464;2023-05-23T14:10:40;9.95;;;3.15;;
78365;SDS011;67641;59.864;30.464;2023-05-23T14:13:07;15.38;;;3.00;;
78365;SDS011;67641;59.864;30.464;2023-05-23T14:15:34;13.32;;;3.65;;
78365;SDS011;67641;59.864;30.464;2023-05-23T14:18:03;10.52;;;2.78;;
78365;SDS011;67641;59.864;30.464;2023-05-23T14:20:30;12.75;;;3.92;;
78365;SDS011;67641;59.864;30.464;2023-05-23T14:22:58;12.65;;;3.40;;
78365;SDS011;67641;59.864;30.464;2023-05-23T14:25:24;10.68;;;3.20;;
78365;SDS011;67641;59.864;30.464;2023-05-23T14:29:28;11.75;;;3.58;;
78365;SDS011;67641;59.864;30.464;2023-05-23T14:31:55;12.68;;;4.00;;
78365;SDS011;67641;59.864;30.464;2023-05-23T14:34:24;14.00;;;3.72;;
78365;SDS011;67641;59.864;30.464;2023-05-23T14:36:54;19.17;;;4.95;;
78365;SDS011;67641;59.864;30.464;2023-05-23T14:39:21;13.48;;;3.97;;
78365;SDS011;67641;59.864;30.464;2023-05-23T14:41:48;15.63;;;4.03;;
78365;SDS011;67641;59.864;30.464;2023-05-23T14:44:14;15.50;;;4.15;;
78365;SDS011;67641;59.864;30.464;2023-05-23T14:46:41;19.02;;;4.70;;
78365;SDS011;67641;59.864;30.464;2023-05-23T14:51:09;18.08;;;4.60;;
78365;SDS011;67641;59.864;30.464;2023-05-23T14:53:37;17.13;;;5.07;;
78365;SDS011;67641;59.864;30.464;2023-05-23T14:56:04;15.70;;;5.18;;
78365;SDS011;67641;59.864;30.464;2023-05-23T14:58:31;14.93;;;4.80;;
78365;SDS011;67641;59.864;30.464;2023-05-23T15:00:58;16.42;;;4.30;;
78365;SDS011;67641;59.864;30.464;2023-05-23T15:03:25;16.33;;;4.20;;
78365;SDS011;67641;59.864;30.464;2023-05-23T15:05:52;16.00;;;4.47;;
78365;SDS011;67641;59.864;30.464;2023-05-23T15:08:19;18.92;;;4.32;;
78365;SDS011;67641;59.864;30.464;2023-05-23T15:13:07;15.35;;;4.10;;
78365;SDS011;67641;59.864;30.464;2023-05-23T15:15:36;21.13;;;5.05;;
78365;SDS011;67641;59.864;30.464;2023-05-23T15:18:03;14.35;;;4.35;;
78365;SDS011;67641;59.864;30.464;2023-05-23T15:22:59;15.07;;;4.43;;
78365;SDS011;67641;59.864;30.464;2023-05-23T15:25:26;15.57;;;3.88;;
78365;SDS011;67641;59.864;30.464;2023-05-23T15:27:53;13.18;;;4.03;;
78365;SDS011;67641;59.864;30.464;2023-05-23T15:30:21;13.18;;;3.63;;
78365;SDS011;67641;59.864;30.464;2023-05-23T15:34:35;11.73;;;3.53;;
78365;SDS011;67641;59.864;30.464;2023-05-23T15:37:02;14.65;;;3.75;;
78365;SDS011;67641;59.864;30.464;2023-05-23T15:39:29;14.82;;;4.60;;
78365;SDS011;67641;59.864;30.464;2023-05-23T15:41:56;15.40;;;4.43;;
78365;SDS011;67641;59.864;30.464;2023-05-23T15:44:24;16.27;;;4.05;;
78365;SDS011;67641;59.864;30.464;2023-05-23T15:46:50;19.40;;;3.95;;
78365;SDS011;67641;59.864;30.464;2023-05-23T15:49:17;13.85;;;3.70;;
78365;SDS011;67641;59.864;30.464;2023-05-23T15:51:44;13.18;;;3.38;;
78365;SDS011;67641;59.864;30.464;2023-05-23T15:56:16;11.30;;;3.25;;
78365;SDS011;67641;59.864;30.464;2023-05-23T15:58:43;15.63;;;3.83;;
78365;SDS011;67641;59.864;30.464;2023-05-23T16:01:10;9.73;;;3.40;;
78365;SDS011;67641;59.864;30.464;2023-05-23T16:03:37;11.98;;;3.78;;
78365;SDS011;67641;59.864;30.464;2023-05-23T16:06:04;13.98;;;3.42;;
78365;SDS011;67641;59.864;30.464;2023-05-23T16:08:31;10.35;;;3.38;;
78365;SDS011;67641;59.864;30.464;2023-05-23T16:10:58;13.57;;;3.22;;
78365;SDS011;67641;59.864;30.464;2023-05-23T16:13:25;12.98;;;3.90;;
78365;SDS011;67641;59.864;30.464;2023-05-23T16:18:32;11.50;;;4.22;;
78365;SDS011;67641;59.864;30.464;2023-05-23T16:20:59;11.05;;;3.13;;
78365;SDS011;67641;59.864;30.464;2023-05-23T16:23:26;11.63;;;3.13;;
78365;SDS011;67641;59.864;30.464;2023-05-23T16:25:52;8.57;;;3.72;;
78365;SDS011;67641;59.864;30.464;2023-05-23T16:28:19;12.38;;;4.10;;
78365;SDS011;67641;59.864;30.464;2023-05-23T16:30:48;11.00;;;4.07;;
78365;SDS011;67641;59.864;30.464;2023-05-23T16:33:16;13.77;;;3.97;;
78365;SDS011;67641;59.864;30.464;2023-05-23T16:35:43;11.77;;;3.60;;
78365;SDS011;67641;59.864;30.464;2023-05-23T16:41:00;10.18;;;3.60;;
78365;SDS011;67641;59.864;30.464;2023-05-23T16:43:27;13.98;;;4.00;;
78365;SDS011;67641;59.864;30.464;2023-05-23T16:45:54;10.65;;;4.55;;
78365;SDS011;67641;59.864;30.464;2023-05-23T16:48:21;10.35;;;3.80;;
78365;SDS011;67641;59.864;30.464;2023-05-23T16:50:48;11.68;;;3.80;;
78365;SDS011;67641;59.864;30.464;2023-05-23T16:53:15;11.25;;;4.32;;
78365;SDS011;67641;59.864;30.464;2023-05-23T16:55:42;12.23;;;3.95;;
78365;SDS011;67641;59.864;30.464;2023-05-23T16:58:10;14.05;;;4.68;;
78365;SDS011;67641;59.864;30.464;2023-05-23T17:03:21;15.77;;;4.65;;
78365;SDS011;67641;59.864;30.464;2023-05-23T17:05:50;10.68;;;3.78;;